| time (UTC) | temp C | wind direction | speed KPH | gust KPH | rain 1hr cm | rain 24hr cm | rain mn cm | humidity % | barometer mb |
| 20260509185824 | 23 | 185 | 0.0 | 0.0 | 0.00 | 0.00 | 0.00 | 46 | 1009.7 |
| 20260509185332 | 23 | 78 | 0.0 | 0.0 | 0.00 | 0.00 | 0.00 | 51 | 1009.7 |
| 20260509184838 | 22 | 84 | 0.0 | 0.0 | 0.00 | 0.00 | 0.00 | 50 | 1010.0 |
| 20260509184305 | 23 | 313 | 0.0 | 0.0 | 0.00 | 0.00 | 0.00 | 51 | 1010.0 |
| 20260509183258 | 22 | 69 | 0.0 | 3.2 | 0.00 | 0.00 | 0.00 | 52 | 1010.1 |
| 20260509182309 | 21 | 123 | 0.0 | 11.3 | 0.00 | 0.00 | 0.00 | 51 | 1010.4 |
| 20260509181836 | 21 | 123 | 0.0 | 11.3 | 0.00 | 0.00 | 0.00 | 51 | 1010.4 |
| 20260509181322 | 21 | 196 | 1.6 | 11.3 | 0.00 | 0.00 | 0.00 | 54 | 1010.6 |
| 20260509180826 | 21 | 82 | 6.4 | 14.5 | 0.00 | 0.00 | 0.00 | 54 | 1010.4 |
| 20260509180334 | 21 | 108 | 3.2 | 14.5 | 0.00 | 0.00 | 0.00 | 55 | 1010.6 |
| 20260509175819 | 20 | 101 | 1.6 | 6.4 | 0.00 | 0.00 | 0.00 | 60 | 1010.8 |
| 20260509175325 | 20 | 346 | 1.6 | 11.3 | 0.00 | 0.00 | 0.00 | 56 | 1010.7 |
| 20260509174834 | 19 | 84 | 0.0 | 11.3 | 0.00 | 0.00 | 0.00 | 59 | 1010.8 |
| 20260509174340 | 19 | 82 | 0.0 | 9.7 | 0.00 | 0.00 | 0.00 | 59 | 1010.9 |
| 20260509173824 | 19 | 80 | 0.0 | 9.7 | 0.00 | 0.00 | 0.00 | 58 | 1011.1 |
| 20260509173332 | 19 | 55 | 0.0 | 1.6 | 0.00 | 0.00 | 0.00 | 61 | 1011.3 |
| 20260509172837 | 19 | 23 | 0.0 | 1.6 | 0.00 | 0.00 | 0.00 | 60 | 1011.4 |
| 20260509172323 | 18 | 5 | 0.0 | 6.4 | 0.00 | 0.00 | 0.00 | 59 | 1011.3 |
| 20260509171829 | 18 | 77 | 0.0 | 6.4 | 0.00 | 0.00 | 0.00 | 58 | 1011.6 |
| 20260509171252 | 18 | 25 | 3.2 | 8.0 | 0.00 | 0.00 | 0.00 | 58 | 1011.7 |
| 20260509170328 | 18 | 25 | 3.2 | 8.0 | 0.00 | 0.00 | 0.00 | 58 | 1011.7 |
| 20260509165837 | 19 | 82 | 0.0 | 8.0 | 0.00 | 0.00 | 0.00 | 57 | 1011.8 |
| 20260509165325 | 19 | 44 | 0.0 | 8.0 | 0.00 | 0.00 | 0.00 | 57 | 1011.7 |
| 20260509164829 | 19 | 22 | 3.2 | 8.0 | 0.00 | 0.00 | 0.00 | 55 | 1011.7 |
| 20260509164335 | 20 | 32 | 0.0 | 4.8 | 0.00 | 0.00 | 0.00 | 56 | 1011.5 |
| 20260509163801 | 20 | 42 | 8.0 | 19.3 | 0.00 | 0.00 | 0.00 | 54 | 1011.3 |
| 20260509162832 | 20 | 89 | 0.0 | 1.6 | 0.00 | 0.00 | 0.00 | 56 | 1011.2 |
| 20260509162340 | 20 | 15 | 0.0 | 9.7 | 0.00 | 0.00 | 0.00 | 55 | 1011.3 |
| 20260509161825 | 20 | 47 | 0.0 | 19.3 | 0.00 | 0.00 | 0.00 | 57 | 1011.4 |
| 20260509161253 | 20 | 61 | 0.0 | 9.7 | 0.00 | 0.00 | 0.00 | 59 | 1011.5 |
| 20260509160326 | 20 | 55 | 0.0 | 1.6 | 0.00 | 0.00 | 0.00 | 56 | 1011.6 |
| 20260509155830 | 19 | 31 | 0.0 | 3.2 | 0.00 | 0.00 | 0.00 | 56 | 1011.6 |
| 20260509155338 | 19 | 28 | 0.0 | 6.4 | 0.00 | 0.00 | 0.00 | 56 | 1011.7 |
| 20260509154823 | 19 | 15 | 0.0 | 6.4 | 0.00 | 0.00 | 0.00 | 60 | 1011.6 |
| 20260509154329 | 18 | 71 | 0.0 | 8.0 | 0.00 | 0.00 | 0.00 | 58 | 1011.7 |
| 20260509153753 | 18 | 36 | 6.4 | 12.9 | 0.00 | 0.00 | 0.00 | 57 | 1011.7 |
| 20260509152825 | 18 | 42 | 3.2 | 12.9 | 0.00 | 0.00 | 0.00 | 55 | 1011.7 |
| 20260509152332 | 18 | 44 | 4.8 | 11.3 | 0.00 | 0.00 | 0.00 | 58 | 1011.7 |
| 20260509151821 | 18 | 17 | 0.0 | 8.0 | 0.00 | 0.00 | 0.00 | 59 | 1011.8 |
| 20260509151307 | 17 | 71 | 0.0 | 8.0 | 0.00 | 0.00 | 0.00 | 60 | 1011.8 |
| 20260509150833 | 17 | 71 | 0.0 | 8.0 | 0.00 | 0.00 | 0.00 | 60 | 1011.8 |
| 20260509150257 | 17 | 71 | 1.6 | 6.4 | 0.00 | 0.00 | 0.00 | 61 | 1011.9 |
| 20260509145310 | 17 | 86 | 0.0 | 3.2 | 0.00 | 0.00 | 0.00 | 63 | 1012.0 |
| 20260509144325 | 16 | 297 | 0.0 | 1.6 | 0.00 | 0.00 | 0.00 | 66 | 1012.1 |
| 20260509143829 | 16 | 227 | 0.0 | 0.0 | 0.00 | 0.00 | 0.00 | 68 | 1012.1 |
| 20260509143320 | 16 | 269 | 0.0 | 0.0 | 0.00 | 0.00 | 0.00 | 65 | 1012.1 |
| 20260509142824 | 16 | 268 | 0.0 | 0.0 | 0.00 | 0.00 | 0.00 | 67 | 1012.1 |
| 20260509142331 | 16 | 268 | 0.0 | 6.4 | 0.00 | 0.00 | 0.00 | 67 | 1012.2 |
| 20260509141835 | 16 | 219 | 0.0 | 6.4 | 0.00 | 0.00 | 0.00 | 68 | 1012.3 |
| 20260509141327 | 16 | 221 | 0.0 | 4.8 | 0.00 | 0.00 | 0.00 | 67 | 1012.3 |
| 20260509140826 | 15 | 217 | 0.0 | 4.8 | 0.00 | 0.00 | 0.00 | 68 | 1012.2 |
| 20260509140334 | 15 | 335 | 1.6 | 3.2 | 0.00 | 0.00 | 0.00 | 67 | 1011.9 |
| 20260509135839 | 15 | 76 | 0.0 | 1.6 | 0.00 | 0.00 | 0.00 | 66 | 1011.8 |
| 20260509135324 | 15 | 76 | 0.0 | 1.6 | 0.00 | 0.00 | 0.00 | 67 | 1011.8 |
| 20260509134754 | 15 | 76 | 0.0 | 1.6 | 0.00 | 0.00 | 0.00 | 66 | 1011.8 |
| 20260509133824 | 15 | 76 | 0.0 | 1.6 | 0.00 | 0.00 | 0.00 | 67 | 1011.8 |
| 20260509133332 | 15 | 76 | 0.0 | 3.2 | 0.00 | 0.00 | 0.00 | 67 | 1011.8 |
| 20260509132836 | 15 | 76 | 0.0 | 4.8 | 0.00 | 0.00 | 0.00 | 71 | 1011.7 |
| 20260509132323 | 15 | 5 | 1.6 | 3.2 | 0.00 | 0.00 | 0.00 | 70 | 1011.8 |
| 20260509131828 | 15 | 345 | 0.0 | 1.6 | 0.00 | 0.00 | 0.00 | 70 | 1012.0 |
| 20260509131255 | 14 | 345 | 0.0 | 3.2 | 0.00 | 0.00 | 0.00 | 69 | 1011.9 |
| 20260509130307 | 14 | 346 | 3.2 | 3.2 | 0.00 | 0.00 | 0.00 | 70 | 1012.0 |
| 20260509125325 | 14 | 346 | 0.0 | 1.6 | 0.00 | 0.00 | 0.00 | 72 | 1011.9 |
| 20260509124828 | 13 | 345 | 0.0 | 3.2 | 0.00 | 0.00 | 0.00 | 72 | 1011.9 |
| 20260509124334 | 13 | 345 | 0.0 | 3.2 | 0.00 | 0.00 | 0.00 | 73 | 1011.8 |
| 20260509123839 | 13 | 345 | 0.0 | 3.2 | 0.00 | 0.00 | 0.00 | 76 | 1011.8 |
| 20260509123327 | 13 | 345 | 0.0 | 6.4 | 0.00 | 0.00 | 0.00 | 74 | 1011.7 |
| 20260509122831 | 13 | 345 | 1.6 | 6.4 | 0.00 | 0.00 | 0.00 | 74 | 1011.8 |
| 20260509122338 | 13 | 94 | 3.2 | 4.8 | 0.00 | 0.00 | 0.00 | 73 | 1011.9 |
| 20260509121822 | 13 | 15 | 1.6 | 3.2 | 0.00 | 0.00 | 0.00 | 74 | 1012.0 |
| 20260509121330 | 13 | 15 | 0.0 | 4.8 | 0.00 | 0.00 | 0.00 | 74 | 1011.9 |
| 20260509120759 | 13 | 15 | 3.2 | 4.8 | 0.00 | 0.00 | 0.00 | 77 | 1012.0 |
| 20260509115830 | 12 | 15 | 0.0 | 0.0 | 0.00 | 0.00 | 0.00 | 76 | 1011.9 |
| 20260509115338 | 12 | 15 | 0.0 | 3.2 | 0.00 | 0.00 | 0.00 | 76 | 1011.8 |
| 20260509114821 | 12 | 15 | 1.6 | 3.2 | 0.00 | 0.00 | 0.00 | 77 | 1011.9 |
| 20260509114548 | 12 | 15 | 0.0 | 0.0 | 0.00 | 0.00 | 0.00 | 76 | 1011.9 |
| 20260509113826 | 12 | 15 | 0.0 | 0.0 | 0.00 | 0.00 | 0.00 | 76 | 1011.8 |
| 20260509113334 | 12 | 15 | 0.0 | 3.2 | 0.00 | 0.00 | 0.00 | 76 | 1011.7 |
| 20260509112838 | 12 | 15 | 0.0 | 6.4 | 0.00 | 0.00 | 0.00 | 76 | 1011.6 |
| 20260509112324 | 12 | 15 | 3.2 | 6.4 | 0.00 | 0.00 | 0.00 | 77 | 1011.7 |
| 20260509111830 | 12 | 14 | 1.6 | 3.2 | 0.00 | 0.00 | 0.00 | 78 | 1011.7 |
| 20260509111259 | 12 | 360 | 0.0 | 1.6 | 0.00 | 0.00 | 0.00 | 76 | 1011.5 |
| 20260509110333 | 12 | 360 | 0.0 | 1.6 | 0.00 | 0.00 | 0.00 | 76 | 1011.6 |
| 20260509105837 | 12 | 355 | 0.0 | 0.0 | 0.00 | 0.00 | 0.00 | 77 | 1011.5 |
| 20260509105325 | 12 | 319 | 0.0 | 0.0 | 0.00 | 0.00 | 0.00 | 74 | 1011.6 |
| 20260509104829 | 12 | 287 | 0.0 | 0.0 | 0.00 | 0.00 | 0.00 | 74 | 1011.4 |
| 20260509104336 | 12 | 287 | 0.0 | 0.0 | 0.00 | 0.00 | 0.00 | 74 | 1011.3 |
| 20260509103820 | 12 | 287 | 0.0 | 0.0 | 0.00 | 0.00 | 0.00 | 74 | 1011.3 |
| 20260509103326 | 12 | 287 | 0.0 | 0.0 | 0.00 | 0.00 | 0.00 | 73 | 1011.2 |
| 20260509102830 | 12 | 287 | 0.0 | 3.2 | 0.00 | 0.00 | 0.00 | 72 | 1011.3 |
| 20260509102337 | 12 | 287 | 0.0 | 3.2 | 0.00 | 0.00 | 0.00 | 70 | 1011.3 |
| 20260509101827 | 12 | 236 | 0.0 | 1.6 | 0.00 | 0.00 | 0.00 | 69 | 1011.3 |
| 20260509101333 | 12 | 236 | 0.0 | 1.6 | 0.00 | 0.00 | 0.00 | 68 | 1011.3 |
| 20260509100839 | 12 | 236 | 0.0 | 1.6 | 0.00 | 0.00 | 0.00 | 69 | 1011.3 |
| 20260509100327 | 12 | 236 | 0.0 | 3.2 | 0.00 | 0.00 | 0.00 | 68 | 1011.3 |
| 20260509095831 | 12 | 236 | 0.0 | 3.2 | 0.00 | 0.00 | 0.00 | 68 | 1011.2 |
| 20260509095337 | 12 | 236 | 1.6 | 3.2 | 0.00 | 0.00 | 0.00 | 68 | 1011.1 |
| 20260509094822 | 12 | 236 | 0.0 | 0.0 | 0.00 | 0.00 | 0.00 | 67 | 1011.1 |
| 20260509094306 | 12 | 236 | 0.0 | 0.0 | 0.00 | 0.00 | 0.00 | 67 | 1011.2 |
| 20260509093339 | 12 | 236 | 0.0 | 0.0 | 0.00 | 0.00 | 0.00 | 66 | 1011.2 |
| 20260509092828 | 12 | 236 | 0.0 | 0.0 | 0.00 | 0.00 | 0.00 | 67 | 1011.2 |
| 20260509092336 | 12 | 236 | 0.0 | 1.6 | 0.00 | 0.00 | 0.00 | 66 | 1011.2 |
| 20260509091802 | 12 | 236 | 0.0 | 3.2 | 0.00 | 0.00 | 0.00 | 65 | 1011.2 |
| 20260509090834 | 12 | 236 | 0.0 | 4.8 | 0.00 | 0.00 | 0.00 | 66 | 1011.2 |
| 20260509090341 | 12 | 236 | 1.6 | 4.8 | 0.00 | 0.00 | 0.00 | 65 | 1011.2 |
| 20260509085824 | 12 | 227 | 0.0 | 0.0 | 0.00 | 0.00 | 0.00 | 64 | 1011.2 |
| 20260509085330 | 12 | 227 | 0.0 | 0.0 | 0.00 | 0.00 | 0.00 | 65 | 1011.2 |
| 20260509084834 | 12 | 227 | 0.0 | 0.0 | 0.00 | 0.00 | 0.00 | 65 | 1011.3 |
| 20260509084321 | 12 | 227 | 0.0 | 0.0 | 0.00 | 0.00 | 0.00 | 66 | 1011.2 |
| 20260509083810 | 13 | 227 | 0.0 | 1.6 | 0.00 | 0.00 | 0.00 | 66 | 1011.4 |
| 20260509083337 | 13 | 227 | 0.0 | 1.6 | 0.00 | 0.00 | 0.00 | 66 | 1011.4 |
| 20260509082820 | 13 | 227 | 0.0 | 4.8 | 0.00 | 0.00 | 0.00 | 64 | 1011.5 |
| 20260509082326 | 13 | 228 | 0.0 | 4.8 | 0.00 | 0.00 | 0.00 | 63 | 1011.6 |
| 20260509081812 | 13 | 217 | 0.0 | 0.0 | 0.00 | 0.00 | 0.00 | 63 | 1011.6 |
| 20260509080822 | 13 | 217 | 0.0 | 0.0 | 0.00 | 0.00 | 0.00 | 63 | 1011.5 |
| 20260509080329 | 13 | 178 | 0.0 | 0.0 | 0.00 | 0.00 | 0.00 | 63 | 1011.4 |
| 20260509075833 | 12 | 220 | 0.0 | 4.8 | 0.00 | 0.00 | 0.00 | 63 | 1011.4 |
| 20260509075340 | 12 | 220 | 1.6 | 8.0 | 0.00 | 0.00 | 0.00 | 64 | 1011.5 |
| 20260509074828 | 12 | 204 | 3.2 | 8.0 | 0.00 | 0.00 | 0.00 | 64 | 1011.4 |
| 20260509074335 | 12 | 235 | 3.2 | 6.4 | 0.00 | 0.00 | 0.00 | 64 | 1011.5 |
| 20260509073840 | 12 | 238 | 1.6 | 6.4 | 0.00 | 0.00 | 0.00 | 65 | 1011.4 |
| 20260509073304 | 12 | 225 | 0.0 | 0.0 | 0.00 | 0.00 | 0.00 | 65 | 1011.6 |
| 20260509072831 | 12 | 225 | 0.0 | 0.0 | 0.00 | 0.00 | 0.00 | 65 | 1011.6 |
| 20260509072338 | 12 | 225 | 0.0 | 3.2 | 0.00 | 0.00 | 0.00 | 65 | 1011.5 |
| 20260509071822 | 12 | 225 | 0.0 | 3.2 | 0.00 | 0.00 | 0.00 | 66 | 1011.5 |
| 20260509071307 | 12 | 225 | 0.0 | 0.0 | 0.00 | 0.00 | 0.00 | 66 | 1011.6 |
| 20260509070341 | 12 | 225 | 0.0 | 0.0 | 0.00 | 0.00 | 0.00 | 67 | 1011.7 |
| 20260509065830 | 12 | 225 | 0.0 | 0.0 | 0.00 | 0.00 | 0.00 | 66 | 1011.7 |
| 20260509065337 | 12 | 225 | 0.0 | 0.0 | 0.00 | 0.00 | 0.00 | 66 | 1011.6 |
| 20260509064821 | 12 | 225 | 0.0 | 0.0 | 0.00 | 0.00 | 0.00 | 68 | 1011.7 |
| 20260509064328 | 12 | 225 | 0.0 | 0.0 | 0.00 | 0.00 | 0.00 | 68 | 1011.7 |
| 20260509063835 | 12 | 225 | 0.0 | 0.0 | 0.00 | 0.00 | 0.00 | 66 | 1011.7 |
| 20260509063301 | 12 | 225 | 0.0 | 3.2 | 0.00 | 0.00 | 0.00 | 66 | 1011.8 |
| 20260509062255 | 12 | 229 | 0.0 | 8.0 | 0.00 | 0.00 | 0.00 | 66 | 1011.9 |
| 20260509061822 | 12 | 229 | 0.0 | 8.0 | 0.00 | 0.00 | 0.00 | 66 | 1011.9 |
| 20260509061310 | 12 | 212 | 3.2 | 9.7 | 0.00 | 0.00 | 0.00 | 65 | 1011.9 |
| 20260509060325 | 12 | 208 | 3.2 | 8.0 | 0.00 | 0.00 | 0.00 | 65 | 1012.0 |
| 20260509055829 | 12 | 227 | 1.6 | 9.7 | 0.00 | 0.00 | 0.00 | 65 | 1011.9 |
| 20260509055335 | 12 | 212 | 1.6 | 9.7 | 0.00 | 0.00 | 0.00 | 67 | 1011.9 |
| 20260509054819 | 12 | 221 | 4.8 | 8.0 | 0.00 | 0.00 | 0.00 | 66 | 1012.0 |
| 20260509054326 | 12 | 212 | 0.0 | 6.4 | 0.00 | 0.00 | 0.00 | 67 | 1012.0 |
| 20260509053811 | 12 | 225 | 1.6 | 3.2 | 0.00 | 0.00 | 0.00 | 68 | 1012.1 |
| 20260509052822 | 11 | 225 | 0.0 | 3.2 | 0.00 | 0.00 | 0.00 | 69 | 1012.1 |
| 20260509052330 | 11 | 225 | 0.0 | 3.2 | 0.00 | 0.00 | 0.00 | 70 | 1012.2 |
| 20260509051838 | 11 | 225 | 0.0 | 3.2 | 0.00 | 0.00 | 0.00 | 71 | 1012.1 |
| 20260509051324 | 11 | 225 | 0.0 | 3.2 | 0.00 | 0.00 | 0.00 | 73 | 1012.1 |
| 20260509050830 | 12 | 225 | 0.0 | 3.2 | 0.00 | 0.00 | 0.00 | 72 | 1012.1 |
| 20260509050255 | 12 | 225 | 0.0 | 0.0 | 0.00 | 0.00 | 0.00 | 71 | 1012.1 |
| 20260509045329 | 12 | 225 | 0.0 | 0.0 | 0.00 | 0.00 | 0.00 | 69 | 1012.3 |
| 20260509044834 | 12 | 225 | 0.0 | 0.0 | 0.00 | 0.00 | 0.00 | 66 | 1012.3 |
| 20260509044340 | 12 | 225 | 0.0 | 0.0 | 0.00 | 0.00 | 0.00 | 64 | 1012.3 |
| 20260509043805 | 12 | 225 | 0.0 | 0.0 | 0.00 | 0.00 | 0.00 | 63 | 1012.2 |
| 20260509042823 | 12 | 225 | 0.0 | 0.0 | 0.00 | 0.00 | 0.00 | 63 | 1012.3 |
| 20260509042307 | 12 | 225 | 0.0 | 0.0 | 0.00 | 0.00 | 0.00 | 63 | 1012.3 |
| 20260509041321 | 12 | 219 | 0.0 | 0.0 | 0.00 | 0.00 | 0.00 | 62 | 1012.2 |
| 20260509040825 | 12 | 219 | 0.0 | 0.0 | 0.00 | 0.00 | 0.00 | 62 | 1012.2 |
| 20260509040331 | 13 | 219 | 0.0 | 0.0 | 0.00 | 0.00 | 0.00 | 61 | 1012.4 |
| 20260509035755 | 13 | 219 | 0.0 | 0.0 | 0.00 | 0.00 | 0.00 | 61 | 1012.4 |
| 20260509034828 | 13 | 219 | 0.0 | 0.0 | 0.00 | 0.00 | 0.00 | 60 | 1012.5 |
| 20260509034333 | 13 | 219 | 0.0 | 0.0 | 0.00 | 0.00 | 0.00 | 60 | 1012.3 |
| 20260509033821 | 13 | 219 | 0.0 | 0.0 | 0.00 | 0.00 | 0.00 | 61 | 1012.4 |
| 20260509033328 | 13 | 219 | 0.0 | 3.2 | 0.00 | 0.00 | 0.00 | 61 | 1012.4 |
| 20260509032831 | 13 | 219 | 0.0 | 3.2 | 0.00 | 0.00 | 0.00 | 61 | 1012.3 |
| 20260509032337 | 13 | 221 | 0.0 | 0.0 | 0.00 | 0.00 | 0.00 | 60 | 1012.3 |
| 20260509031821 | 13 | 82 | 0.0 | 0.0 | 0.00 | 0.00 | 0.00 | 60 | 1012.4 |
| 20260509031330 | 13 | 82 | 0.0 | 0.0 | 0.00 | 0.00 | 0.00 | 59 | 1012.4 |
| 20260509030834 | 13 | 82 | 0.0 | 0.0 | 0.00 | 0.00 | 0.00 | 58 | 1012.5 |
| 20260509030300 | 13 | 82 | 0.0 | 0.0 | 0.00 | 0.00 | 0.00 | 57 | 1012.5 |
| 20260509025256 | 13 | 82 | 0.0 | 0.0 | 0.00 | 0.00 | 0.00 | 56 | 1012.6 |
| 20260509024330 | 14 | 82 | 0.0 | 0.0 | 0.00 | 0.00 | 0.00 | 56 | 1012.6 |
| 20260509023756 | 14 | 82 | 0.0 | 0.0 | 0.00 | 0.00 | 0.00 | 56 | 1012.8 |
| 20260509022827 | 14 | 82 | 0.0 | 0.0 | 0.00 | 0.00 | 0.00 | 55 | 1012.6 |
| 20260509022334 | 14 | 82 | 0.0 | 0.0 | 0.00 | 0.00 | 0.00 | 55 | 1012.7 |
| 20260509021821 | 15 | 82 | 0.0 | 0.0 | 0.00 | 0.00 | 0.00 | 56 | 1012.6 |
| 20260509021308 | 15 | 82 | 0.0 | 0.0 | 0.00 | 0.00 | 0.00 | 56 | 1012.5 |
| 20260509020304 | 15 | 82 | 0.0 | 0.0 | 0.00 | 0.00 | 0.00 | 52 | 1012.6 |
| 20260509015255 | 15 | 82 | 0.0 | 0.0 | 0.00 | 0.00 | 0.00 | 52 | 1012.6 |
| 20260509014329 | 15 | 82 | 0.0 | 0.0 | 0.00 | 0.00 | 0.00 | 51 | 1012.6 |
| 20260509013834 | 15 | 82 | 0.0 | 0.0 | 0.00 | 0.00 | 0.00 | 52 | 1012.7 |
| 20260509013341 | 15 | 82 | 0.0 | 0.0 | 0.00 | 0.00 | 0.00 | 53 | 1012.6 |
| 20260509012825 | 15 | 82 | 0.0 | 0.0 | 0.00 | 0.00 | 0.00 | 52 | 1012.6 |
| 20260509012333 | 16 | 82 | 0.0 | 0.0 | 0.00 | 0.00 | 0.00 | 50 | 1012.6 |
| 20260509011801 | 16 | 82 | 0.0 | 0.0 | 0.00 | 0.00 | 0.00 | 53 | 1012.5 |
| 20260509010755 | 16 | 82 | 0.0 | 0.0 | 0.00 | 0.00 | 0.00 | 50 | 1012.5 |
| 20260509005828 | 16 | 82 | 0.0 | 0.0 | 0.00 | 0.00 | 0.00 | 48 | 1012.5 |
| 20260509005335 | 16 | 82 | 0.0 | 0.0 | 0.00 | 0.00 | 0.00 | 48 | 1012.5 |
| 20260509004800 | 16 | 82 | 0.0 | 0.0 | 0.00 | 0.00 | 0.00 | 49 | 1012.3 |
| 20260509003832 | 17 | 82 | 0.0 | 0.0 | 0.00 | 0.00 | 0.00 | 51 | 1012.3 |
| 20260509003340 | 17 | 82 | 0.0 | 4.8 | 0.00 | 0.00 | 0.00 | 49 | 1012.3 |
| 20260509002824 | 17 | 82 | 0.0 | 4.8 | 0.00 | 0.00 | 0.00 | 46 | 1012.2 |
| 20260509002334 | 17 | 82 | 0.0 | 0.0 | 0.00 | 0.00 | 0.00 | 46 | 1012.2 |
| 20260509001840 | 17 | 82 | 0.0 | 0.0 | 0.00 | 0.00 | 0.00 | 45 | 1012.2 |
| 20260509001304 | 17 | 82 | 0.0 | 0.0 | 0.00 | 0.00 | 0.00 | 43 | 1012.2 |
| 20260509000340 | 18 | 82 | 0.0 | 0.0 | 0.00 | 0.00 | 0.00 | 44 | 1012.2 |
| 20260508235822 | 18 | 82 | 0.0 | 0.0 | 0.00 | 0.00 | 0.00 | 44 | 1012.1 |
| 20260508235328 | 18 | 82 | 0.0 | 0.0 | 0.00 | 0.00 | 0.00 | 44 | 1012.1 |
| 20260508234832 | 18 | 82 | 0.0 | 0.0 | 0.00 | 0.00 | 0.00 | 41 | 1012.1 |
| 20260508234338 | 18 | 82 | 0.0 | 0.0 | 0.00 | 0.00 | 0.00 | 41 | 1012.1 |
| 20260508233821 | 18 | 82 | 0.0 | 0.0 | 0.00 | 0.00 | 0.00 | 42 | 1012.1 |
| 20260508233333 | 18 | 82 | 0.0 | 0.0 | 0.00 | 0.00 | 0.00 | 42 | 1012.0 |
| 20260508232837 | 18 | 360 | 0.0 | 0.0 | 0.00 | 0.00 | 0.00 | 41 | 1012.0 |
| 20260508232325 | 18 | 360 | 0.0 | 0.0 | 0.00 | 0.00 | 0.00 | 41 | 1011.9 |
| 20260508231829 | 18 | 360 | 0.0 | 0.0 | 0.00 | 0.00 | 0.00 | 41 | 1011.9 |
| 20260508231336 | 19 | 360 | 0.0 | 0.0 | 0.00 | 0.00 | 0.00 | 41 | 1011.9 |
| 20260508230820 | 19 | 360 | 0.0 | 0.0 | 0.00 | 0.00 | 0.00 | 40 | 1011.9 |
| 20260508230326 | 20 | 360 | 0.0 | 0.0 | 0.00 | 0.00 | 0.00 | 42 | 1011.8 |
| 20260508225830 | 20 | 360 | 0.0 | 0.0 | 0.00 | 0.00 | 0.00 | 42 | 1011.8 |
| 20260508225337 | 20 | 360 | 0.0 | 0.0 | 0.00 | 0.00 | 0.00 | 40 | 1011.8 |
| 20260508224820 | 20 | 360 | 0.0 | 3.2 | 0.00 | 0.00 | 0.00 | 38 | 1011.8 |
| 20260508224333 | 20 | 360 | 0.0 | 6.4 | 0.00 | 0.00 | 0.00 | 38 | 1011.9 |
| 20260508223836 | 20 | 360 | 0.0 | 4.8 | 0.00 | 0.00 | 0.00 | 39 | 1011.9 |
| 20260508223322 | 20 | 14 | 0.0 | 8.0 | 0.00 | 0.00 | 0.00 | 39 | 1011.7 |
| 20260508222826 | 20 | 10 | 3.2 | 8.0 | 0.00 | 0.00 | 0.00 | 39 | 1011.7 |
| 20260508222334 | 20 | 9 | 0.0 | 4.8 | 0.00 | 0.00 | 0.00 | 41 | 1011.7 |
| 20260508221841 | 20 | 10 | 0.0 | 4.8 | 0.00 | 0.00 | 0.00 | 40 | 1011.7 |
| 20260508221305 | 20 | 360 | 0.0 | 0.0 | 0.00 | 0.00 | 0.00 | 39 | 1011.7 |
| 20260508220338 | 20 | 316 | 0.0 | 1.6 | 0.00 | 0.00 | 0.00 | 39 | 1011.8 |
| 20260508215823 | 20 | 317 | 0.0 | 1.6 | 0.00 | 0.00 | 0.00 | 36 | 1011.8 |
| 20260508215310 | 20 | 310 | 0.0 | 8.0 | 0.00 | 0.00 | 0.00 | 35 | 1011.9 |
| 20260508214324 | 20 | 294 | 1.6 | 8.0 | 0.00 | 0.00 | 0.00 | 34 | 1011.9 |
| 20260508213828 | 20 | 317 | 0.0 | 14.5 | 0.00 | 0.00 | 0.00 | 34 | 1011.9 |
| 20260508213337 | 21 | 306 | 6.4 | 20.9 | 0.00 | 0.00 | 0.00 | 34 | 1011.9 |
| 20260508212840 | 21 | 319 | 11.3 | 22.5 | 0.00 | 0.00 | 0.00 | 34 | 1011.9 |
| 20260508212326 | 22 | 311 | 11.3 | 22.5 | 0.00 | 0.00 | 0.00 | 33 | 1011.9 |
| 20260508211813 | 21 | 311 | 14.5 | 20.9 | 0.00 | 0.00 | 0.00 | 36 | 1011.8 |
| 20260508210823 | 20 | 284 | 12.9 | 24.1 | 0.00 | 0.00 | 0.00 | 36 | 1011.7 |
| 20260508210335 | 20 | 303 | 14.5 | 24.1 | 0.00 | 0.00 | 0.00 | 36 | 1011.8 |
| 20260508205840 | 20 | 272 | 6.4 | 16.1 | 0.00 | 0.00 | 0.00 | 37 | 1011.8 |
| 20260508205306 | 20 | 253 | 12.9 | 20.9 | 0.00 | 0.00 | 0.00 | 35 | 1011.9 |
| 20260508204339 | 20 | 249 | 9.7 | 22.5 | 0.00 | 0.00 | 0.00 | 35 | 1011.9 |
| 20260508203823 | 21 | 285 | 14.5 | 22.5 | 0.00 | 0.00 | 0.00 | 35 | 1011.9 |
| 20260508203329 | 21 | 277 | 11.3 | 20.9 | 0.00 | 0.00 | 0.00 | 32 | 1011.9 |
| 20260508202834 | 21 | 263 | 9.7 | 24.1 | 0.00 | 0.00 | 0.00 | 32 | 1012.0 |
| 20260508202321 | 22 | 292 | 12.9 | 27.4 | 0.00 | 0.00 | 0.00 | 32 | 1012.0 |
| 20260508201827 | 22 | 264 | 16.1 | 27.4 | 0.00 | 0.00 | 0.00 | 31 | 1012.0 |
| 20260508201339 | 22 | 260 | 11.3 | 19.3 | 0.00 | 0.00 | 0.00 | 35 | 1012.0 |
| 20260508200822 | 22 | 238 | 12.9 | 22.5 | 0.00 | 0.00 | 0.00 | 34 | 1012.0 |
| 20260508200328 | 22 | 297 | 11.3 | 29.0 | 0.00 | 0.00 | 0.00 | 35 | 1012.1 |
| 20260508195831 | 22 | 270 | 16.1 | 29.0 | 0.00 | 0.00 | 0.00 | 35 | 1012.2 |
| 20260508195339 | 22 | 242 | 4.8 | 24.1 | 0.00 | 0.00 | 0.00 | 37 | 1012.2 |
| 20260508194823 | 22 | 221 | 14.5 | 29.0 | 0.00 | 0.00 | 0.00 | 35 | 1012.2 |
| 20260508194329 | 22 | 242 | 19.3 | 29.0 | 0.00 | 0.00 | 0.00 | 32 | 1012.3 |
| 20260508193834 | 22 | 242 | 14.5 | 37.0 | 0.00 | 0.00 | 0.00 | 36 | 1012.3 |
| 20260508193341 | 22 | 252 | 11.3 | 37.0 | 0.00 | 0.00 | 0.00 | 36 | 1012.4 |
| 20260508192826 | 22 | 273 | 17.7 | 33.8 | 0.00 | 0.00 | 0.00 | 34 | 1012.5 |
| 20260508192253 | 22 | 285 | 9.7 | 32.2 | 0.00 | 0.00 | 0.00 | 38 | 1012.7 |
| 20260508191820 | 22 | 285 | 9.7 | 32.2 | 0.00 | 0.00 | 0.00 | 38 | 1012.7 |
| 20260508191327 | 22 | 219 | 9.7 | 38.6 | 0.00 | 0.00 | 0.00 | 37 | 1012.8 |
| 20260508190814 | 21 | 281 | 20.9 | 37.0 | 0.00 | 0.00 | 0.00 | 36 | 1012.9 |